createdAt,value
2019-05-29T00:00:03.076Z,196.18
2019-05-29T00:02:33.229Z,192.13
2019-05-29T00:05:03.907Z,194.17
2019-05-29T00:07:33.257Z,192.17
2019-05-29T00:10:03.339Z,194.87
2019-05-29T00:12:38.912Z,195.25
2019-05-29T00:15:08.750Z,189.60
2019-05-29T00:17:38.513Z,189.77
2019-05-29T00:20:12.367Z,190.97
2019-05-29T00:22:43.087Z,189.97
2019-05-29T00:25:12.780Z,188.90
2019-05-29T00:27:44.475Z,195.80
2019-05-29T00:30:17.590Z,187.80
2019-05-29T00:32:50.496Z,189.87
2019-05-29T00:35:23.407Z,191.40
2019-05-29T00:37:56.576Z,189.37
2019-05-29T00:40:32.780Z,199.37
2019-05-29T00:43:09.160Z,191.32
2019-05-29T00:45:43.733Z,194.73
2019-05-29T00:48:16.031Z,191.85
2019-05-29T00:50:50.924Z,189.77
2019-05-29T00:53:24.992Z,191.15
2019-05-29T00:55:56.909Z,193.03
2019-05-29T00:58:27.710Z,203.53
2019-05-29T01:00:57.085Z,199.00
2019-05-29T01:03:27.851Z,200.80
2019-05-29T01:05:58.723Z,203.10
2019-05-29T01:08:28.372Z,202.10
2019-05-29T01:10:57.769Z,203.17
2019-05-29T01:13:27.489Z,199.00
2019-05-29T01:15:56.868Z,201.97
2019-05-29T01:18:26.269Z,198.10
2019-05-29T01:20:57.790Z,202.47
2019-05-29T01:23:28.068Z,204.30
2019-05-29T01:25:57.455Z,215.93
2019-05-29T01:28:27.236Z,199.00
2019-05-29T01:30:56.960Z,197.17
2019-05-29T01:33:26.392Z,195.77
2019-05-29T01:35:57.233Z,205.33
2019-05-29T01:38:34.442Z,203.17
2019-05-29T01:41:03.776Z,207.80
2019-05-29T01:43:36.748Z,202.82
2019-05-29T01:46:08.325Z,204.00
2019-05-29T01:48:37.705Z,206.60
2019-05-29T01:51:11.189Z,205.67
2019-05-29T01:53:41.166Z,203.43
2019-05-29T01:56:12.425Z,201.17
2019-05-29T01:58:42.305Z,198.63
2019-05-29T02:01:13.212Z,200.47
2019-05-29T02:03:43.471Z,203.03
2019-05-29T02:06:12.873Z,204.80
2019-05-29T02:08:42.625Z,202.27
2019-05-29T02:11:15.236Z,203.60
2019-05-29T02:13:46.780Z,200.13
2019-05-29T02:16:18.474Z,201.95
2019-05-29T02:18:48.678Z,205.60
2019-05-29T02:21:19.832Z,198.10
2019-05-29T02:23:49.853Z,197.83
2019-05-29T02:26:20.289Z,200.47
2019-05-29T02:28:52.450Z,199.87
2019-05-29T02:31:23.662Z,198.50
2019-05-29T02:33:52.971Z,207.80
2019-05-29T02:36:26.291Z,199.70
2019-05-29T02:39:03.491Z,201.30
2019-05-29T02:41:34.599Z,205.83
2019-05-29T02:44:04.385Z,199.87
2019-05-29T02:46:34.891Z,201.20
2019-05-29T02:49:04.284Z,201.07
2019-05-29T02:51:34.410Z,206.97
2019-05-29T02:54:04.680Z,201.40
2019-05-29T02:56:34.082Z,203.37
2019-05-29T02:59:03.959Z,211.80
2019-05-29T03:01:33.808Z,213.20
2019-05-29T03:04:03.534Z,209.90
2019-05-29T03:06:35.188Z,210.00
2019-05-29T03:09:06.693Z,201.53
2019-05-29T03:11:36.437Z,232.00
2019-05-29T03:14:05.999Z,204.10
2019-05-29T03:16:35.413Z,221.47
2019-05-29T03:19:05.350Z,222.87
2019-05-29T03:21:37.444Z,204.87
2019-05-29T03:24:07.377Z,213.83
2019-05-29T03:26:38.303Z,219.57
2019-05-29T03:29:11.759Z,219.40
2019-05-29T03:31:47.273Z,212.35
2019-05-29T03:34:17.206Z,212.65
2019-05-29T03:36:49.481Z,215.77
2019-05-29T03:39:21.328Z,211.43
2019-05-29T03:41:51.649Z,208.23
2019-05-29T03:44:22.089Z,213.50
2019-05-29T03:46:53.638Z,209.97
2019-05-29T03:49:23.489Z,215.47
2019-05-29T03:51:54.122Z,210.77
2019-05-29T03:54:23.521Z,216.00
2019-05-29T03:57:01.236Z,237.77
2019-05-29T03:59:30.698Z,210.30
2019-05-29T04:02:00.294Z,208.60
2019-05-29T04:04:31.341Z,206.30
2019-05-29T04:07:01.391Z,200.53
2019-05-29T04:09:33.170Z,208.43
2019-05-29T04:12:04.637Z,212.53
2019-05-29T04:14:35.535Z,217.77
2019-05-29T04:17:07.416Z,217.77
2019-05-29T04:19:38.594Z,205.87
2019-05-29T04:22:11.947Z,208.50
2019-05-29T04:24:41.583Z,209.17
2019-05-29T04:27:14.004Z,204.10
2019-05-29T04:29:43.942Z,206.30
2019-05-29T04:32:14.841Z,209.23
2019-05-29T04:35:05.936Z,210.43
2019-05-29T04:37:36.984Z,201.35
2019-05-29T04:40:08.229Z,218.10
2019-05-29T04:42:40.200Z,200.00
2019-05-29T04:45:10.846Z,209.03
2019-05-29T04:47:40.555Z,212.07
2019-05-29T04:50:12.198Z,212.03
2019-05-29T04:52:43.325Z,216.70
2019-05-29T04:55:13.064Z,212.13
2019-05-29T04:57:44.273Z,203.20
2019-05-29T05:00:18.168Z,206.43
2019-05-29T05:02:47.532Z,207.80
2019-05-29T05:05:24.751Z,205.64
2019-05-29T05:07:59.290Z,196.87
2019-05-29T05:10:41.371Z,199.80
2019-05-29T05:13:13.633Z,201.50
2019-05-29T05:15:45.418Z,199.82
2019-05-29T05:18:16.233Z,200.10
2019-05-29T05:20:50.947Z,208.00
2019-05-29T05:23:20.380Z,192.47
2019-05-29T05:25:49.797Z,196.77
2019-05-29T05:28:20.128Z,201.50
2019-05-29T05:30:49.516Z,200.23
2019-05-29T05:33:19.245Z,193.43
2019-05-29T05:35:49.518Z,198.43
2019-05-29T05:38:21.303Z,199.20
2019-05-29T05:40:50.680Z,196.97
2019-05-29T05:43:25.893Z,199.87
2019-05-29T05:45:55.678Z,192.87
2019-05-29T05:48:30.882Z,201.98
2019-05-29T05:51:00.712Z,194.50
2019-05-29T05:53:31.239Z,193.30
2019-05-29T05:56:05.240Z,191.60
2019-05-29T05:58:37.797Z,190.62
2019-05-29T06:01:07.475Z,187.97
2019-05-29T06:03:37.907Z,189.60
2019-05-29T06:06:07.346Z,197.73
2019-05-29T06:08:38.092Z,190.23
2019-05-29T06:11:08.587Z,188.50
2019-05-29T06:13:38.605Z,184.37
2019-05-29T06:16:07.997Z,185.70
2019-05-29T06:18:38.465Z,186.77
2019-05-29T06:21:09.157Z,185.43
2019-05-29T06:23:39.555Z,181.87
2019-05-29T06:26:08.927Z,180.60
2019-05-29T06:28:41.274Z,188.30
2019-05-29T06:31:11.126Z,187.50
2019-05-29T06:33:41.530Z,188.50
2019-05-29T06:36:12.195Z,183.50
2019-05-29T06:38:42.172Z,185.37
2019-05-29T06:41:12.196Z,179.17
2019-05-29T06:43:42.309Z,181.80
2019-05-29T06:46:12.693Z,188.27
2019-05-29T06:48:53.512Z,178.20
2019-05-29T06:51:13.318Z,177.93
2019-05-29T06:53:43.899Z,172.97
2019-05-29T06:56:15.690Z,176.37
2019-05-29T06:58:48.541Z,183.77
2019-05-29T07:01:19.597Z,179.07
2019-05-29T07:03:49.101Z,175.47
2019-05-29T07:06:20.523Z,179.90
2019-05-29T07:08:50.371Z,176.77
2019-05-29T07:11:19.869Z,170.63
2019-05-29T07:13:50.797Z,174.10
2019-05-29T07:16:20.486Z,173.97
2019-05-29T07:19:24.143Z,173.30
2019-05-29T07:21:25.423Z,174.03
2019-05-29T07:23:54.804Z,171.87
2019-05-29T07:26:24.297Z,171.95
2019-05-29T07:29:06.536Z,169.30
2019-05-29T07:31:25.670Z,169.30
2019-05-29T07:33:55.785Z,167.40
2019-05-29T07:36:26.178Z,168.43
2019-05-29T07:39:03.270Z,170.87
2019-05-29T07:41:27.657Z,162.90
2019-05-29T07:43:58.036Z,161.60
2019-05-29T07:46:28.569Z,163.23
2019-05-29T07:48:57.881Z,168.50
2019-05-29T07:51:27.320Z,170.03
2019-05-29T07:53:57.105Z,168.33
2019-05-29T07:56:29.912Z,170.37
2019-05-29T07:59:03.352Z,176.83
2019-05-29T08:01:31.372Z,174.83
2019-05-29T08:04:00.814Z,170.83
2019-05-29T08:06:32.007Z,172.57
2019-05-29T08:09:01.688Z,166.07
2019-05-29T08:11:31.100Z,164.85
2019-05-29T08:14:01.273Z,162.50
2019-05-29T08:16:30.668Z,163.67
2019-05-29T08:19:00.102Z,161.90
2019-05-29T08:21:30.161Z,160.10
2019-05-29T08:24:00.285Z,167.17
2019-05-29T08:26:30.037Z,165.07
2019-05-29T08:28:59.631Z,160.83
2019-05-29T08:31:29.021Z,168.37
2019-05-29T08:33:58.414Z,162.30
2019-05-29T08:36:30.561Z,163.47
2019-05-29T08:39:01.241Z,159.97
2019-05-29T08:41:31.615Z,158.90
2019-05-29T08:44:02.635Z,158.00
2019-05-29T08:46:33.533Z,162.80
2019-05-29T08:49:04.626Z,159.67
2019-05-29T08:51:36.447Z,159.13
2019-05-29T08:54:22.945Z,157.83
2019-05-29T08:56:38.189Z,160.67
2019-05-29T08:59:08.438Z,157.10
2019-05-29T09:01:39.239Z,160.53
2019-05-29T09:04:09.033Z,156.60
2019-05-29T09:06:39.343Z,159.37
2019-05-29T09:09:09.264Z,169.57
2019-05-29T09:11:39.979Z,160.53
2019-05-29T09:14:09.974Z,158.73
2019-05-29T09:16:40.643Z,162.90
2019-05-29T09:19:14.170Z,159.30
2019-05-29T09:21:44.052Z,162.60
2019-05-29T09:24:14.624Z,166.13
2019-05-29T09:26:46.516Z,166.67
2019-05-29T09:29:23.528Z,165.85
2019-05-29T09:31:54.073Z,166.47
2019-05-29T09:34:24.426Z,169.63
2019-05-29T09:36:55.829Z,166.07
2019-05-29T09:39:26.156Z,168.90
2019-05-29T09:41:56.687Z,169.70
2019-05-29T09:44:38.070Z,169.37
2019-05-29T09:46:57.685Z,167.87
2019-05-29T09:49:27.080Z,169.37
2019-05-29T09:51:57.855Z,173.50
2019-05-29T09:54:27.389Z,175.17
2019-05-29T09:56:58.398Z,168.37
2019-05-29T09:59:28.277Z,179.05
2019-05-29T10:02:02.110Z,177.13
2019-05-29T10:04:29.571Z,171.80
2019-05-29T10:06:59.641Z,170.13
2019-05-29T10:09:29.018Z,170.50
2019-05-29T10:12:03.429Z,177.10
2019-05-29T10:14:29.877Z,172.27
2019-05-29T10:17:07.355Z,167.53
2019-05-29T10:19:31.097Z,166.90
2019-05-29T10:22:03.634Z,170.50
2019-05-29T10:24:33.048Z,167.57
2019-05-29T10:27:03.570Z,169.83
2019-05-29T10:29:34.060Z,172.73
2019-05-29T10:32:04.014Z,171.10
2019-05-29T10:34:33.343Z,169.87
2019-05-29T10:37:03.827Z,171.60
2019-05-29T10:39:33.642Z,167.63
2019-05-29T10:42:03.558Z,174.00
2019-05-29T10:44:33.965Z,163.97
2019-05-29T10:47:03.414Z,164.90
2019-05-29T10:49:33.494Z,165.07
2019-05-29T10:52:14.669Z,161.10
2019-05-29T10:54:35.454Z,156.95
2019-05-29T10:57:05.063Z,166.73
2019-05-29T10:59:35.487Z,158.27
2019-05-29T11:02:07.724Z,169.17
2019-05-29T11:04:38.152Z,158.95
2019-05-29T11:07:07.789Z,159.80
2019-05-29T11:09:44.470Z,169.47
2019-05-29T11:12:08.266Z,157.00
2019-05-29T11:14:38.116Z,155.67
2019-05-29T11:17:07.521Z,156.77
2019-05-29T11:19:37.468Z,157.07
2019-05-29T11:22:25.303Z,158.50
2019-05-29T11:24:41.264Z,154.65
2019-05-29T11:27:11.093Z,154.27
2019-05-29T11:29:41.262Z,155.17
2019-05-29T11:32:11.661Z,158.67
2019-05-29T11:34:41.061Z,156.52
2019-05-29T11:37:10.541Z,155.00
2019-05-29T11:39:39.939Z,156.17
2019-05-29T11:42:24.225Z,156.97
2019-05-29T11:44:41.415Z,156.17
2019-05-29T11:47:10.801Z,159.23
2019-05-29T11:49:44.139Z,155.37
2019-05-29T11:52:24.061Z,168.17
2019-05-29T11:54:45.786Z,155.87
2019-05-29T11:57:16.644Z,154.07
2019-05-29T11:59:47.541Z,164.30
2019-05-29T12:02:17.233Z,151.63
2019-05-29T12:04:47.323Z,155.60
2019-05-29T12:07:23.528Z,156.47
2019-05-29T12:09:53.618Z,158.80
2019-05-29T12:12:23.709Z,163.67
2019-05-29T12:15:05.944Z,163.75
2019-05-29T12:17:24.567Z,182.73
2019-05-29T12:19:56.042Z,170.63
2019-05-29T12:22:26.147Z,172.13
2019-05-29T12:24:56.595Z,172.60
2019-05-29T12:27:29.141Z,175.43
2019-05-29T12:30:00.823Z,172.90
2019-05-29T12:32:30.786Z,183.97
2019-05-29T12:35:01.122Z,186.27
2019-05-29T12:37:32.653Z,182.33
2019-05-29T12:40:03.708Z,179.77
2019-05-29T12:42:36.506Z,182.20
2019-05-29T12:45:07.918Z,181.43
2019-05-29T12:47:37.324Z,179.87
2019-05-29T12:50:09.833Z,188.63
2019-05-29T12:52:42.560Z,181.37
2019-05-29T12:55:12.805Z,188.37
2019-05-29T12:57:42.194Z,180.07
2019-05-29T13:00:13.521Z,179.87
2019-05-29T13:02:42.928Z,176.30
2019-05-29T13:05:19.864Z,180.85
2019-05-29T13:07:44.997Z,180.47
2019-05-29T13:10:30.052Z,179.27
2019-05-29T13:12:51.794Z,181.67
2019-05-29T13:15:22.244Z,179.10
2019-05-29T13:18:00.402Z,188.07
2019-05-29T13:20:31.161Z,178.65
2019-05-29T13:23:02.761Z,183.50
2019-05-29T13:25:32.578Z,178.57
2019-05-29T13:28:04.052Z,183.60
2019-05-29T13:30:33.813Z,188.87
2019-05-29T13:33:07.438Z,178.70
2019-05-29T13:35:36.210Z,181.35
2019-05-29T13:38:07.332Z,180.90
2019-05-29T13:40:36.798Z,182.17
2019-05-29T13:43:15.208Z,178.97
2019-05-29T13:45:40.378Z,183.83
2019-05-29T13:48:10.017Z,187.17
2019-05-29T13:50:40.426Z,186.80
2019-05-29T13:53:11.481Z,182.37
2019-05-29T13:55:41.495Z,177.40
2019-05-29T13:58:11.126Z,175.73
2019-05-29T14:00:40.534Z,177.07
2019-05-29T14:03:12.506Z,178.37
2019-05-29T14:05:42.644Z,177.67
2019-05-29T14:08:21.087Z,178.23
2019-05-29T14:10:50.961Z,170.90
2019-05-29T14:13:22.579Z,173.53
2019-05-29T14:15:57.135Z,172.90
2019-05-29T14:18:29.797Z,173.27
2019-05-29T14:20:59.245Z,174.80
2019-05-29T14:23:28.920Z,173.62
2019-05-29T14:26:00.401Z,175.83
2019-05-29T14:28:31.112Z,189.40
2019-05-29T14:31:03.771Z,175.70
2019-05-29T14:33:38.216Z,175.77
2019-05-29T14:36:09.331Z,189.13
2019-05-29T14:38:50.616Z,179.77
2019-05-29T14:41:20.670Z,175.97
2019-05-29T14:43:52.916Z,179.27
2019-05-29T14:46:22.729Z,171.28
2019-05-29T14:48:52.267Z,178.47
2019-05-29T14:51:22.072Z,176.90
2019-05-29T14:53:53.490Z,176.47
2019-05-29T14:56:22.925Z,176.60
2019-05-29T14:58:53.063Z,171.23
2019-05-29T15:01:22.558Z,172.05
2019-05-29T15:03:52.062Z,178.47
2019-05-29T15:06:21.452Z,186.10
2019-05-29T15:08:51.050Z,178.03
2019-05-29T15:11:21.892Z,177.47
2019-05-29T15:13:51.209Z,179.47
2019-05-29T15:16:21.267Z,174.68
2019-05-29T15:18:51.621Z,174.73
2019-05-29T15:21:23.096Z,181.97
2019-05-29T15:23:52.800Z,182.00
2019-05-29T15:26:23.266Z,180.12
2019-05-29T15:28:57.678Z,179.47
2019-05-29T15:31:27.908Z,179.42
2019-05-29T15:33:57.444Z,180.87
2019-05-29T15:36:26.853Z,186.77
2019-05-29T15:38:56.284Z,183.47
2019-05-29T15:41:25.697Z,191.60
2019-05-29T15:43:56.009Z,183.82
2019-05-29T15:46:26.049Z,185.57
2019-05-29T15:48:55.392Z,183.47
2019-05-29T15:51:24.788Z,188.37
2019-05-29T15:53:56.144Z,185.28
2019-05-29T15:56:28.141Z,184.33
2019-05-29T15:58:57.589Z,188.37
2019-05-29T16:01:27.658Z,186.03
2019-05-29T16:03:57.104Z,184.07
2019-05-29T16:06:26.533Z,183.30
2019-05-29T16:08:57.814Z,184.50
2019-05-29T16:11:27.147Z,188.40
2019-05-29T16:13:56.585Z,186.67
2019-05-29T16:16:26.245Z,195.30
2019-05-29T16:18:56.415Z,184.07
2019-05-29T16:21:25.756Z,186.27
2019-05-29T16:23:55.184Z,187.12
2019-05-29T16:26:24.585Z,190.40
2019-05-29T16:28:56.077Z,183.07
2019-05-29T16:31:31.268Z,185.10
2019-05-29T16:34:00.660Z,184.33
2019-05-29T16:36:30.069Z,175.63
2019-05-29T16:38:59.801Z,184.40
2019-05-29T16:41:29.508Z,180.20
2019-05-29T16:43:58.913Z,185.70
2019-05-29T16:46:28.815Z,179.15
2019-05-29T16:49:01.129Z,175.63
2019-05-29T16:51:31.379Z,187.47
2019-05-29T16:54:03.761Z,180.53
2019-05-29T16:56:33.744Z,184.03
2019-05-29T16:59:04.147Z,189.87
2019-05-29T17:01:37.446Z,189.28
2019-05-29T17:04:07.516Z,184.27
2019-05-29T17:06:38.654Z,187.70
2019-05-29T17:09:10.060Z,184.67
2019-05-29T17:11:40.106Z,191.17
2019-05-29T17:14:11.365Z,182.87
2019-05-29T17:16:40.889Z,185.57
2019-05-29T17:19:10.310Z,180.93
2019-05-29T17:21:39.845Z,184.27
2019-05-29T17:24:14.553Z,177.57
2019-05-29T17:26:42.864Z,182.30
2019-05-29T17:29:12.494Z,195.87
2019-05-29T17:31:46.981Z,181.30
2019-05-29T17:34:17.313Z,178.82
2019-05-29T17:36:51.088Z,183.07
2019-05-29T17:39:23.060Z,176.83
2019-05-29T17:41:52.518Z,182.17
2019-05-29T17:44:22.120Z,177.05
2019-05-29T17:46:52.827Z,177.70
2019-05-29T17:49:32.218Z,176.50
2019-05-29T17:51:53.782Z,178.43
2019-05-29T17:54:26.097Z,179.60
2019-05-29T17:56:55.802Z,182.90
2019-05-29T17:59:28.927Z,177.67
2019-05-29T18:01:58.366Z,182.80
2019-05-29T18:04:31.949Z,182.67
2019-05-29T18:07:01.438Z,175.17
2019-05-29T18:09:31.540Z,179.50
2019-05-29T18:12:01.037Z,178.87
2019-05-29T18:14:31.879Z,191.63
2019-05-29T18:17:01.388Z,180.90
2019-05-29T18:19:32.170Z,182.97
2019-05-29T18:22:01.760Z,175.20
2019-05-29T18:24:37.543Z,190.63
2019-05-29T18:27:07.789Z,183.80
2019-05-29T18:29:37.981Z,184.78
2019-05-29T18:32:07.690Z,188.60
2019-05-29T18:34:39.370Z,181.65
2019-05-29T18:37:09.747Z,179.23
2019-05-29T18:39:42.077Z,181.82
2019-05-29T18:42:11.431Z,183.50
2019-05-29T18:44:42.179Z,194.20
2019-05-29T18:47:15.339Z,191.27
2019-05-29T18:49:45.217Z,185.57
2019-05-29T18:52:15.397Z,194.22
2019-05-29T18:54:45.402Z,182.47
2019-05-29T18:57:18.476Z,182.02
2019-05-29T18:59:49.376Z,182.20
2019-05-29T19:02:19.281Z,183.30
2019-05-29T19:04:49.337Z,182.83
2019-05-29T19:07:21.422Z,185.87
2019-05-29T19:09:51.273Z,180.87
2019-05-29T19:12:21.833Z,187.40
2019-05-29T19:14:51.234Z,178.18
2019-05-29T19:17:22.014Z,184.50
2019-05-29T19:19:51.480Z,184.70
2019-05-29T19:22:22.245Z,184.57
2019-05-29T19:24:51.757Z,178.53
2019-05-29T19:27:31.751Z,178.05
2019-05-29T19:29:52.276Z,180.87
2019-05-29T19:32:25.192Z,180.10
2019-05-29T19:34:54.731Z,181.10
2019-05-29T19:37:25.661Z,181.67
2019-05-29T19:39:55.409Z,184.60
2019-05-29T19:42:26.133Z,180.57
2019-05-29T19:44:55.668Z,178.57
2019-05-29T19:47:26.511Z,178.70
2019-05-29T19:49:56.374Z,180.17
2019-05-29T19:52:31.102Z,181.07
2019-05-29T19:55:01.361Z,182.10
2019-05-29T19:57:46.554Z,185.53
2019-05-29T20:00:03.114Z,182.87
2019-05-29T20:02:33.246Z,179.07
2019-05-29T20:05:10.174Z,177.70
2019-05-29T20:07:42.067Z,199.30
2019-05-29T20:10:12.459Z,185.52
2019-05-29T20:12:41.921Z,183.97
2019-05-29T20:15:12.348Z,181.70
2019-05-29T20:17:42.441Z,182.93
2019-05-29T20:20:12.288Z,180.50
2019-05-29T20:22:41.765Z,180.47
2019-05-29T20:25:14.023Z,174.80
2019-05-29T20:27:44.048Z,194.07
2019-05-29T20:30:19.522Z,192.22
2019-05-29T20:32:49.158Z,187.70
2019-05-29T20:35:18.828Z,186.75
2019-05-29T20:37:48.414Z,188.73
2019-05-29T20:40:21.175Z,197.32
2019-05-29T20:42:50.955Z,185.57
2019-05-29T20:45:21.050Z,182.70
2019-05-29T20:47:53.160Z,186.37
2019-05-29T20:50:23.061Z,183.00
2019-05-29T20:52:52.462Z,187.53
2019-05-29T20:55:22.253Z,181.67
2019-05-29T20:57:51.653Z,195.07
2019-05-29T21:00:21.153Z,187.40
2019-05-29T21:02:50.831Z,186.20
2019-05-29T21:05:20.511Z,184.36
2019-05-29T21:07:51.214Z,191.00
2019-05-29T21:10:24.627Z,183.35
2019-05-29T21:12:54.363Z,190.13
2019-05-29T21:15:23.833Z,188.00
2019-05-29T21:17:54.723Z,185.00
2019-05-29T21:20:28.374Z,183.23
2019-05-29T21:22:57.058Z,187.17
2019-05-29T21:25:27.810Z,186.60
2019-05-29T21:27:57.245Z,183.37
2019-05-29T21:30:30.891Z,182.67
2019-05-29T21:33:07.520Z,185.47
2019-05-29T21:35:38.035Z,184.17
2019-05-29T21:38:10.184Z,185.17
2019-05-29T21:40:40.386Z,194.80
2019-05-29T21:43:11.288Z,191.50
2019-05-29T21:45:43.144Z,192.50
2019-05-29T21:48:15.188Z,189.23
2019-05-29T21:50:45.524Z,189.13
2019-05-29T21:53:18.751Z,193.13
2019-05-29T21:55:50.864Z,188.62
2019-05-29T21:58:20.911Z,192.30
2019-05-29T22:00:51.711Z,192.25
2019-05-29T22:03:21.813Z,192.90
2019-05-29T22:05:52.457Z,193.15
2019-05-29T22:08:21.924Z,195.77
2019-05-29T22:10:51.890Z,197.77
2019-05-29T22:13:21.973Z,199.20
2019-05-29T22:15:52.802Z,199.07
2019-05-29T22:18:22.770Z,200.20
2019-05-29T22:20:52.984Z,194.57
2019-05-29T22:23:22.980Z,196.37
2019-05-29T22:25:53.161Z,196.30
2019-05-29T22:28:22.775Z,197.90
2019-05-29T22:30:53.418Z,191.80
2019-05-29T22:33:22.766Z,197.00
2019-05-29T22:35:53.728Z,192.92
2019-05-29T22:38:29.528Z,197.07
2019-05-29T22:41:02.586Z,188.80
2019-05-29T22:43:32.305Z,191.47
2019-05-29T22:46:02.475Z,190.50
2019-05-29T22:48:33.310Z,191.27
2019-05-29T22:51:03.578Z,189.83
2019-05-29T22:53:33.620Z,190.27
2019-05-29T22:56:03.293Z,190.83
2019-05-29T22:58:32.776Z,187.17
2019-05-29T23:01:02.277Z,195.27
2019-05-29T23:03:31.905Z,191.67
2019-05-29T23:06:02.391Z,187.53
2019-05-29T23:08:32.828Z,189.23
2019-05-29T23:11:03.136Z,194.97
2019-05-29T23:13:36.086Z,193.47
2019-05-29T23:16:07.086Z,195.77
2019-05-29T23:18:38.212Z,191.23
2019-05-29T23:21:10.606Z,196.27
2019-05-29T23:23:40.978Z,188.20
2019-05-29T23:26:10.371Z,190.63
2019-05-29T23:28:42.459Z,189.80
2019-05-29T23:31:11.893Z,193.27
2019-05-29T23:33:41.373Z,196.37
2019-05-29T23:36:14.750Z,191.17
2019-05-29T23:38:44.137Z,185.43
2019-05-29T23:41:14.773Z,196.57
2019-05-29T23:43:44.849Z,192.98
2019-05-29T23:46:15.947Z,197.73
2019-05-29T23:48:46.316Z,203.60
2019-05-29T23:51:18.282Z,197.68
2019-05-29T23:53:47.698Z,195.87
2019-05-29T23:56:18.153Z,203.10
2019-05-29T23:58:48.458Z,192.60
